Time;durP1;ratioP1;P1;durP2;ratioP2;P2;SDS_P1;SDS_P2;PMS_P1;PMS_P2;Temp;Humidity;BMP_temperature;BMP_pressure;BME280_temperature;BME280_humidity;BME280_pressure;Samples;Min_cycle;Max_cycle;Signal;HPM_P1;HPM_P2
2023/07/20 00:02:11;;;;;;;4.55;2.10;;;17.30;99.90;;;;;;4996717;28;20042;-86
2023/07/20 00:04:37;;;;;;;4.97;2.28;;;17.20;99.90;;;;;;4980738;28;20034;-86
2023/07/20 00:07:03;;;;;;;5.53;2.20;;;17.20;99.90;;;;;;4996246;28;20084;-86
2023/07/20 00:09:29;;;;;;;4.88;2.15;;;17.20;99.90;;;;;;4980481;28;20042;-86
2023/07/20 00:11:55;;;;;;;5.65;2.40;;;17.20;99.90;;;;;;4996432;28;20030;-85
2023/07/20 00:14:20;;;;;;;3.22;1.38;;;17.20;99.90;;;;;;4980466;28;20034;-85
2023/07/20 00:16:48;;;;;;;5.18;2.50;;;17.10;99.90;;;;;;4996343;28;20124;-85
2023/07/20 00:19:16;;;;;;;5.60;2.83;;;17.10;99.90;;;;;;4996292;28;20096;-86
2023/07/20 00:21:42;;;;;;;5.80;2.97;;;17.10;99.90;;;;;;4995589;28;20507;-85
2023/07/20 00:24:08;;;;;;;5.35;2.72;;;17.10;99.90;;;;;;4995667;28;20123;-85
2023/07/20 00:26:34;;;;;;;5.93;2.75;;;17.10;99.90;;;;;;4995682;28;20073;-85
2023/07/20 00:28:59;;;;;;;4.90;2.45;;;17.10;99.90;;;;;;4994917;28;20045;-85
2023/07/20 00:31:25;;;;;;;5.47;2.30;;;17.00;99.90;;;;;;4980116;28;20449;-86
2023/07/20 00:33:51;;;;;;;3.63;2.03;;;17.00;99.90;;;;;;4996183;28;20030;-85
2023/07/20 00:36:16;;;;;;;3.97;1.52;;;17.00;99.90;;;;;;4995833;28;20109;-85
2023/07/20 00:38:42;;;;;;;3.80;1.80;;;16.90;99.90;;;;;;4995724;28;20042;-85
2023/07/20 00:41:08;;;;;;;4.30;1.90;;;16.90;99.90;;;;;;4995689;28;20407;-85
2023/07/20 00:43:33;;;;;;;3.30;1.65;;;16.90;99.90;;;;;;4979654;28;20498;-85
2023/07/20 00:45:59;;;;;;;3.97;1.80;;;16.80;99.90;;;;;;4979375;28;20037;-85
2023/07/20 00:48:25;;;;;;;4.38;1.80;;;16.80;99.90;;;;;;4995805;28;20049;-84
2023/07/20 00:50:51;;;;;;;5.55;1.90;;;16.80;99.90;;;;;;4995567;28;20049;-85
2023/07/20 00:53:17;;;;;;;5.45;1.95;;;16.80;99.90;;;;;;4995536;28;20030;-85
2023/07/20 00:55:43;;;;;;;5.50;2.00;;;16.80;99.90;;;;;;4979054;28;20037;-85
2023/07/20 00:58:09;;;;;;;3.85;1.70;;;16.80;99.90;;;;;;4979471;28;20145;-85
2023/07/20 01:00:34;;;;;;;5.47;2.20;;;16.70;99.90;;;;;;4995551;28;20042;-85
2023/07/20 01:03:00;;;;;;;4.45;1.67;;;16.70;99.90;;;;;;4995665;28;20129;-85
2023/07/20 01:05:57;;;;;;;3.55;1.30;;;16.70;99.90;;;;;;4995490;28;20434;-85
2023/07/20 01:08:43;;;;;;;5.25;2.08;;;16.60;99.90;;;;;;4965644;28;20049;-85
2023/07/20 01:11:43;;;;;;;5.85;2.30;;;16.60;99.90;;;;;;4995697;28;20034;-85
2023/07/20 01:14:11;;;;;;;4.90;2.50;;;16.60;99.90;;;;;;4917141;29;20094;-85
2023/07/20 01:16:37;;;;;;;6.07;2.30;;;16.60;99.90;;;;;;4917117;29;20043;-86
2023/07/20 01:19:03;;;;;;;7.07;2.78;;;16.60;99.90;;;;;;4917278;29;20054;-85
2023/07/20 01:21:48;;;;;;;6.10;3.10;;;16.50;99.90;;;;;;4900333;29;20040;-85
2023/07/20 01:24:31;;;;;;;4.10;1.83;;;16.50;99.90;;;;;;4900664;29;20047;-85
2023/07/20 01:27:11;;;;;;;5.22;2.63;;;16.40;99.90;;;;;;4916437;29;20509;-85
2023/07/20 01:30:18;;;;;;;3.80;2.13;;;16.40;99.90;;;;;;4917069;29;20143;-85
2023/07/20 01:32:46;;;;;;;5.47;2.50;;;16.30;99.90;;;;;;4901574;29;20043;-85
2023/07/20 01:35:15;;;;;;;5.05;2.45;;;16.30;99.90;;;;;;4915948;29;20051;-85
2023/07/20 01:37:44;;;;;;;5.05;2.10;;;16.30;99.90;;;;;;4916677;29;20052;-86
2023/07/20 01:40:11;;;;;;;5.65;1.88;;;16.20;99.90;;;;;;4916229;29;20570;-85
2023/07/20 01:42:37;;;;;;;6.13;2.75;;;16.10;99.90;;;;;;4915996;29;20500;-85
2023/07/20 01:45:03;;;;;;;6.28;2.80;;;16.20;99.90;;;;;;4900788;29;20063;-85
2023/07/20 01:47:29;;;;;;;5.47;2.92;;;16.20;99.90;;;;;;4916585;29;20044;-85
2023/07/20 01:49:54;;;;;;;5.68;2.40;;;16.20;99.90;;;;;;4938549;28;20411;-85
2023/07/20 01:52:20;;;;;;;5.00;2.20;;;16.10;99.90;;;;;;5012358;28;20044;-85
2023/07/20 01:54:45;;;;;;;6.78;3.53;;;16.10;99.90;;;;;;4994456;28;20054;-85
2023/07/20 01:57:11;;;;;;;5.50;2.30;;;16.10;99.90;;;;;;4994349;28;20048;-85
2023/07/20 01:59:36;;;;;;;5.13;2.38;;;16.10;99.90;;;;;;4978293;28;20040;-85
2023/07/20 02:02:02;;;;;;;6.40;3.22;;;16.00;99.90;;;;;;4993928;28;20042;-85
2023/07/20 02:04:28;;;;;;;4.95;2.33;;;16.10;99.90;;;;;;4994631;28;20129;-85
2023/07/20 02:06:53;;;;;;;6.32;2.30;;;16.00;99.90;;;;;;4994231;28;20609;-85
2023/07/20 02:09:19;;;;;;;5.70;3.20;;;15.90;99.90;;;;;;5012054;28;20045;-85
2023/07/20 02:11:45;;;;;;;7.50;3.28;;;15.90;99.90;;;;;;4993948;28;20041;-85
2023/07/20 02:14:11;;;;;;;6.82;3.45;;;16.00;99.90;;;;;;4994222;28;20454;-85
2023/07/20 02:16:36;;;;;;;6.05;3.20;;;16.00;99.90;;;;;;4993839;28;20073;-85
2023/07/20 02:19:02;;;;;;;6.80;3.25;;;15.90;99.90;;;;;;4994557;28;20136;-85
2023/07/20 02:21:28;;;;;;;5.07;2.58;;;15.90;99.90;;;;;;4993889;28;20041;-85
2023/07/20 02:23:53;;;;;;;5.82;2.45;;;15.80;99.90;;;;;;4993509;28;20060;-85
2023/07/20 02:26:19;;;;;;;7.70;3.30;;;15.70;99.90;;;;;;4993557;28;20414;-85
2023/07/20 02:28:44;;;;;;;5.60;3.03;;;15.70;99.90;;;;;;4977801;28;20105;-85
2023/07/20 02:31:10;;;;;;;6.65;3.55;;;15.70;99.90;;;;;;4994184;28;20044;-85
2023/07/20 02:33:36;;;;;;;5.43;2.30;;;15.70;99.90;;;;;;4994325;28;20077;-85
2023/07/20 02:36:01;;;;;;;5.72;3.10;;;15.60;99.90;;;;;;4977838;28;20045;-85
2023/07/20 02:38:27;;;;;;;5.00;2.47;;;15.60;99.90;;;;;;4976741;28;20544;-85
2023/07/20 02:40:52;;;;;;;4.93;2.55;;;15.60;99.90;;;;;;4993684;28;20042;-85
2023/07/20 02:43:18;;;;;;;4.40;1.92;;;15.50;99.90;;;;;;4993657;28;20392;-85
2023/07/20 02:45:44;;;;;;;4.93;1.90;;;15.40;99.90;;;;;;4992526;28;20108;-85
2023/07/20 02:48:09;;;;;;;5.13;2.70;;;15.30;99.90;;;;;;4993281;28;20045;-85
2023/07/20 02:50:35;;;;;;;5.80;2.90;;;15.30;99.90;;;;;;4977645;28;20131;-85
2023/07/20 02:53:01;;;;;;;5.55;2.28;;;15.30;99.90;;;;;;4977587;28;20038;-85
2023/07/20 02:55:26;;;;;;;6.60;3.95;;;15.20;99.90;;;;;;4976953;28;20041;-85
2023/07/20 02:57:52;;;;;;;7.68;4.13;;;15.20;99.90;;;;;;4993478;28;20120;-85
2023/07/20 03:00:19;;;;;;;6.88;3.35;;;15.20;99.90;;;;;;4993406;28;20387;-85
2023/07/20 03:02:47;;;;;;;8.40;3.88;;;15.10;99.90;;;;;;4977324;28;20056;-85
2023/07/20 03:05:13;;;;;;;7.30;4.68;;;15.10;99.90;;;;;;4993916;28;20384;-85
2023/07/20 03:07:39;;;;;;;7.20;4.35;;;15.10;99.90;;;;;;4977144;28;20053;-85
2023/07/20 03:10:09;;;;;;;6.78;2.88;;;15.10;99.90;;;;;;4977963;28;20042;-85
2023/07/20 03:12:35;;;;;;;7.50;5.47;;;15.00;99.90;;;;;;4993711;28;20052;-85
2023/07/20 03:15:02;;;;;;;24.77;3.08;;;15.00;99.90;;;;;;4993624;28;20120;-85
2023/07/20 03:17:27;;;;;;;8.57;2.53;;;14.90;99.90;;;;;;4993583;28;20042;-85
2023/07/20 03:19:53;;;;;;;33.90;4.72;;;14.80;99.90;;;;;;4993618;28;20407;-85
2023/07/20 03:22:18;;;;;;;16.75;2.58;;;14.80;99.90;;;;;;4977068;28;20088;-85
2023/07/20 03:24:44;;;;;;;18.70;2.88;;;14.70;99.90;;;;;;4993077;28;20077;-85
2023/07/20 03:27:10;;;;;;;17.13;4.85;;;14.60;99.90;;;;;;4993343;28;20091;-85
2023/07/20 03:29:35;;;;;;;7.18;4.60;;;14.60;99.90;;;;;;4993642;28;20041;-85
2023/07/20 03:32:01;;;;;;;8.75;2.88;;;14.60;99.90;;;;;;4993836;28;20483;-85
2023/07/20 03:34:26;;;;;;;18.85;5.03;;;14.60;99.90;;;;;;4993342;28;20152;-85
2023/07/20 03:36:52;;;;;;;16.00;2.72;;;14.50;99.90;;;;;;4993372;28;20046;-85
2023/07/20 03:39:17;;;;;;;40.58;5.90;;;14.50;99.90;;;;;;4977467;28;20509;-86
2023/07/20 03:41:43;;;;;;;9.30;5.82;;;14.50;99.90;;;;;;4993184;28;20048;-83
2023/07/20 03:44:09;;;;;;;7.15;4.65;;;14.50;99.90;;;;;;4977213;28;20045;-83
2023/07/20 03:46:34;;;;;;;6.63;3.10;;;14.50;99.90;;;;;;4993065;28;20548;-83
2023/07/20 03:49:00;;;;;;;6.78;4.43;;;14.40;99.90;;;;;;4977029;28;20046;-83
2023/07/20 03:51:26;;;;;;;7.93;4.43;;;14.40;99.90;;;;;;4977074;28;20037;-83
2023/07/20 03:53:52;;;;;;;6.30;3.70;;;14.40;99.90;;;;;;4993384;28;20071;-83
2023/07/20 03:56:18;;;;;;;6.47;2.67;;;14.40;99.90;;;;;;4993107;28;20046;-83
2023/07/20 03:58:43;;;;;;;7.43;4.68;;;14.30;99.90;;;;;;4996486;28;20041;-83
2023/07/20 04:01:09;;;;;;;7.28;4.78;;;14.40;99.90;;;;;;4996666;28;20526;-83
2023/07/20 04:03:36;;;;;;;6.82;3.15;;;14.40;99.90;;;;;;4996173;28;20205;-82
2023/07/20 04:06:01;;;;;;;7.32;4.72;;;14.40;99.90;;;;;;4996410;28;20564;-83
2023/07/20 04:08:27;;;;;;;8.20;5.00;;;14.40;99.90;;;;;;4970481;28;20089;-85
2023/07/20 04:10:53;;;;;;;8.25;5.15;;;14.30;99.90;;;;;;4967835;28;20038;-84
2023/07/20 04:13:18;;;;;;;5.95;3.00;;;14.40;99.90;;;;;;4960402;28;20042;-84
2023/07/20 04:15:44;;;;;;;5.95;2.65;;;14.30;99.90;;;;;;4960431;28;20077;-84
2023/07/20 04:18:10;;;;;;;6.97;3.33;;;14.30;99.90;;;;;;4960855;28;20042;-84
2023/07/20 04:20:35;;;;;;;5.55;2.78;;;14.20;99.90;;;;;;4961096;28;20487;-84
2023/07/20 04:23:01;;;;;;;6.10;2.60;;;14.20;99.90;;;;;;4959874;28;20491;-84
2023/07/20 04:25:27;;;;;;;7.80;5.38;;;14.20;99.90;;;;;;4976323;28;20101;-84
2023/07/20 04:27:53;;;;;;;6.95;3.20;;;14.20;99.90;;;;;;4976738;28;20073;-84
2023/07/20 04:30:20;;;;;;;7.82;4.20;;;14.20;99.90;;;;;;4976891;28;20089;-84
2023/07/20 04:32:46;;;;;;;6.95;4.47;;;14.20;99.90;;;;;;4960658;28;20070;-84
2023/07/20 04:35:17;;;;;;;8.07;4.00;;;14.20;99.90;;;;;;4976949;28;20054;-84
2023/07/20 04:37:45;;;;;;;7.75;2.08;;;14.10;99.90;;;;;;4960488;28;20150;-84
2023/07/20 04:40:15;;;;;;;5.68;2.95;;;14.00;99.90;;;;;;4960031;28;20049;-84
2023/07/20 04:42:41;;;;;;;6.15;2.45;;;14.00;99.90;;;;;;4975972;28;20407;-84
2023/07/20 04:45:07;;;;;;;7.93;5.28;;;13.90;99.90;;;;;;4959865;28;20042;-84
2023/07/20 04:47:32;;;;;;;8.65;5.47;;;14.00;99.90;;;;;;4960046;28;20046;-84
2023/07/20 04:49:58;;;;;;;7.78;3.00;;;14.00;99.90;;;;;;4976744;28;20049;-84
2023/07/20 04:52:24;;;;;;;7.43;2.80;;;14.00;99.90;;;;;;4976753;28;20034;-84
2023/07/20 04:54:49;;;;;;;6.05;2.67;;;13.90;99.90;;;;;;4976284;28;20507;-84
2023/07/20 04:57:15;;;;;;;7.22;2.60;;;13.90;99.90;;;;;;4974993;28;20045;-84
2023/07/20 04:59:40;;;;;;;6.40;2.42;;;14.00;99.90;;;;;;4960358;28;20034;-84
2023/07/20 05:02:06;;;;;;;6.57;2.42;;;14.00;99.90;;;;;;4975888;28;20042;-84
2023/07/20 05:04:32;;;;;;;7.30;4.13;;;14.00;99.90;;;;;;4975918;28;20128;-83
2023/07/20 05:06:57;;;;;;;6.10;2.13;;;14.10;99.90;;;;;;4975882;28;20050;-84
2023/07/20 05:09:23;;;;;;;7.70;4.32;;;14.10;99.90;;;;;;4975883;28;20394;-84
2023/07/20 05:11:48;;;;;;;7.32;4.50;;;14.20;99.90;;;;;;4959953;28;20038;-84
2023/07/20 05:14:14;;;;;;;5.43;2.10;;;14.20;99.90;;;;;;4959582;28;20034;-84
2023/07/20 05:16:40;;;;;;;6.05;2.55;;;14.20;99.90;;;;;;4975628;28;20045;-84
2023/07/20 05:19:06;;;;;;;7.65;4.20;;;14.20;99.90;;;;;;4975582;28;20465;-84
2023/07/20 05:21:31;;;;;;;6.70;2.50;;;14.30;99.90;;;;;;4975552;28;20046;-84
2023/07/20 05:23:57;;;;;;;7.75;4.70;;;14.30;99.90;;;;;;4974899;28;20061;-84
2023/07/20 05:26:23;;;;;;;8.23;4.82;;;14.40;99.90;;;;;;4975524;28;20129;-84
2023/07/20 05:28:48;;;;;;;7.15;3.28;;;14.50;99.90;;;;;;4959339;28;20403;-84
2023/07/20 05:31:14;;;;;;;10.40;3.10;;;14.50;99.90;;;;;;4974225;28;20133;-84
2023/07/20 05:33:39;;;;;;;7.70;4.38;;;14.50;99.90;;;;;;4975178;28;20042;-84
2023/07/20 05:36:05;;;;;;;7.18;2.78;;;14.60;99.90;;;;;;4959411;28;20541;-84
2023/07/20 05:38:30;;;;;;;6.80;4.45;;;14.60;99.90;;;;;;4975277;28;20042;-84
2023/07/20 05:41:01;;;;;;;6.10;2.45;;;14.70;99.90;;;;;;4965023;28;20044;-84
2023/07/20 05:43:27;;;;;;;5.32;2.30;;;14.70;99.90;;;;;;4991434;28;20230;-85
2023/07/20 05:45:53;;;;;;;7.65;3.20;;;14.80;99.90;;;;;;4966835;28;20147;-85
2023/07/20 05:48:22;;;;;;;5.45;2.42;;;14.80;99.90;;;;;;4994930;28;20046;-85
2023/07/20 05:50:48;;;;;;;5.13;1.83;;;14.90;99.90;;;;;;4995107;28;20042;-85
2023/07/20 05:53:13;;;;;;;5.90;1.67;;;14.90;99.90;;;;;;4994747;28;20580;-85
2023/07/20 05:55:39;;;;;;;6.10;2.60;;;14.90;99.90;;;;;;4994865;28;20041;-86
2023/07/20 05:58:05;;;;;;;4.57;2.40;;;15.10;99.90;;;;;;4978547;28;20048;-85
2023/07/20 06:00:31;;;;;;;6.72;2.60;;;15.20;99.90;;;;;;4994810;28;20041;-84
2023/07/20 06:02:57;;;;;;;4.43;1.65;;;15.30;99.90;;;;;;4978172;28;20502;-84
2023/07/20 06:05:23;;;;;;;5.53;2.20;;;15.30;99.90;;;;;;4994133;28;20045;-85
2023/07/20 06:07:49;;;;;;;5.70;2.00;;;15.40;99.90;;;;;;4984166;28;20041;-85
2023/07/20 06:10:16;;;;;;;4.88;2.10;;;15.50;99.90;;;;;;4976968;28;20088;-84
2023/07/20 06:12:41;;;;;;;5.18;2.22;;;15.60;99.90;;;;;;4981170;28;20042;-84
2023/07/20 06:15:27;;;;;;;6.38;1.63;;;15.70;99.90;;;;;;4984448;28;20071;-85
2023/07/20 06:17:54;;;;;;;3.83;1.83;;;15.70;99.90;;;;;;5002913;28;20052;-84
2023/07/20 06:20:20;;;;;;;4.68;1.85;;;15.60;99.90;;;;;;4983804;28;20038;-84
2023/07/20 06:22:45;;;;;;;3.47;1.30;;;15.80;99.90;;;;;;4975269;28;20419;-85
2023/07/20 06:25:11;;;;;;;4.40;1.40;;;15.80;99.90;;;;;;4974495;28;20045;-85
2023/07/20 06:27:36;;;;;;;4.82;1.70;;;15.80;99.90;;;;;;4992080;28;20053;-86
2023/07/20 06:30:02;;;;;;;5.13;1.67;;;15.90;99.90;;;;;;4974894;28;20129;-86
2023/07/20 06:32:28;;;;;;;5.15;1.60;;;16.00;99.90;;;;;;4957971;28;20392;-86
2023/07/20 06:34:53;;;;;;;5.18;1.60;;;16.10;99.90;;;;;;4974104;28;20125;-86
2023/07/20 06:37:20;;;;;;;3.00;1.20;;;16.20;99.90;;;;;;4957821;28;20089;-86
2023/07/20 06:39:48;;;;;;;5.07;1.60;;;16.20;99.90;;;;;;4968243;28;20054;-86
2023/07/20 06:42:14;;;;;;;4.07;1.50;;;16.20;99.90;;;;;;4975284;28;20050;-85
2023/07/20 06:44:39;;;;;;;3.75;1.40;;;16.20;99.90;;;;;;4974454;28;20089;-86
2023/07/20 06:47:05;;;;;;;4.60;1.20;;;16.30;99.90;;;;;;4974182;28;20117;-86
2023/07/20 06:49:31;;;;;;;4.38;1.65;;;16.30;99.90;;;;;;4973534;28;20454;-86
2023/07/20 06:51:56;;;;;;;3.85;1.48;;;16.40;99.90;;;;;;4958811;28;20031;-86
2023/07/20 06:54:22;;;;;;;4.45;1.42;;;16.40;99.90;;;;;;4974479;28;20447;-86
2023/07/20 06:56:48;;;;;;;3.22;1.30;;;16.50;99.90;;;;;;4958089;28;20046;-85
2023/07/20 06:59:13;;;;;;;3.80;1.38;;;16.50;99.90;;;;;;4974634;28;20086;-86
2023/07/20 07:01:39;;;;;;;4.00;1.25;;;16.60;99.90;;;;;;4974557;28;20487;-86
2023/07/20 07:04:05;;;;;;;5.50;1.40;;;16.60;99.90;;;;;;4973553;28;20042;-86
2023/07/20 07:06:31;;;;;;;2.78;1.10;;;16.70;99.90;;;;;;4958021;28;20120;-86
2023/07/20 07:08:57;;;;;;;3.45;1.25;;;16.80;99.90;;;;;;4974386;28;20100;-86
2023/07/20 07:11:23;;;;;;;5.28;1.88;;;16.80;99.90;;;;;;4976532;28;20125;-86
2023/07/20 07:13:50;;;;;;;4.53;1.40;;;16.90;99.90;;;;;;4965082;28;20511;-86
2023/07/20 07:16:18;;;;;;;3.72;1.23;;;17.00;99.90;;;;;;4983325;28;20097;-86
2023/07/20 07:18:47;;;;;;;3.58;1.25;;;17.10;99.90;;;;;;4987174;28;20402;-86
2023/07/20 07:21:13;;;;;;;4.63;1.38;;;17.20;99.90;;;;;;4993505;28;20103;-85
2023/07/20 07:23:39;;;;;;;4.30;1.10;;;17.30;99.90;;;;;;4993471;28;20034;-85
2023/07/20 07:26:05;;;;;;;2.63;0.95;;;17.40;99.90;;;;;;4977017;28;20041;-86
2023/07/20 07:28:31;;;;;;;4.97;1.48;;;17.40;99.90;;;;;;4977546;28;20100;-85
2023/07/20 07:30:57;;;;;;;5.43;1.30;;;17.50;99.90;;;;;;4993459;28;20037;-86
2023/07/20 07:33:23;;;;;;;5.43;1.27;;;17.60;99.90;;;;;;4996362;28;20073;-86
2023/07/20 07:35:51;;;;;;;3.13;1.17;;;17.70;99.90;;;;;;4981166;28;20044;-86
2023/07/20 07:38:16;;;;;;;6.32;1.65;;;17.80;99.90;;;;;;4997712;28;20048;-86
2023/07/20 07:40:42;;;;;;;4.22;1.30;;;17.90;99.90;;;;;;4997620;28;20482;-86
2023/07/20 07:43:09;;;;;;;4.32;1.30;;;18.00;99.90;;;;;;4981512;28;20042;-85
2023/07/20 07:45:38;;;;;;;4.22;1.10;;;17.90;99.90;;;;;;4996955;28;20045;-86
2023/07/20 07:48:05;;;;;;;5.28;1.40;;;17.80;99.90;;;;;;4980935;28;20045;-86
2023/07/20 07:50:30;;;;;;;2.08;0.85;;;17.80;99.90;;;;;;4997188;28;20040;-86
2023/07/20 07:52:56;;;;;;;5.25;1.20;;;17.80;99.90;;;;;;4996900;28;20041;-86
2023/07/20 07:55:22;;;;;;;7.90;1.58;;;17.80;99.90;;;;;;4980791;28;20123;-86
2023/07/20 07:57:47;;;;;;;5.50;1.13;;;17.90;99.90;;;;;;4995976;28;20045;-86
2023/07/20 08:00:14;;;;;;;3.13;1.00;;;17.90;99.90;;;;;;4996859;28;20038;-86
2023/07/20 08:02:43;;;;;;;7.07;1.65;;;17.90;99.90;;;;;;4980341;28;20077;-86
2023/07/20 08:05:09;;;;;;;6.20;1.35;;;18.00;99.90;;;;;;4996272;28;20502;-86
2023/07/20 08:07:36;;;;;;;4.35;1.30;;;18.00;99.90;;;;;;4996690;28;20048;-86
2023/07/20 08:10:01;;;;;;;5.78;1.50;;;18.00;99.90;;;;;;4996450;28;20152;-86
2023/07/20 08:12:27;;;;;;;4.22;1.25;;;18.00;99.90;;;;;;4996605;28;20054;-85
2023/07/20 08:14:53;;;;;;;4.28;1.10;;;18.00;99.90;;;;;;4996845;28;20048;-86
2023/07/20 08:17:18;;;;;;;6.20;1.08;;;18.00;99.90;;;;;;4996286;28;20038;-85
2023/07/20 08:19:45;;;;;;;5.95;1.40;;;17.90;99.90;;;;;;4996861;28;20514;-85
2023/07/20 08:22:12;;;;;;;4.43;1.20;;;17.90;99.90;;;;;;4996897;28;20041;-85
2023/07/20 08:24:40;;;;;;;4.63;1.30;;;18.10;99.90;;;;;;4980033;28;20169;-85
2023/07/20 08:27:06;;;;;;;5.30;1.13;;;18.30;99.90;;;;;;4996340;28;20078;-86
2023/07/20 08:29:32;;;;;;;6.00;1.40;;;18.30;99.90;;;;;;4980077;28;20064;-85
2023/07/20 08:31:58;;;;;;;5.53;1.30;;;18.50;99.90;;;;;;4996714;28;20494;-86
2023/07/20 08:34:23;;;;;;;4.20;1.00;;;18.60;99.90;;;;;;4996668;28;20546;-86
2023/07/20 08:36:49;;;;;;;5.63;1.10;;;18.70;99.90;;;;;;4980212;28;20030;-86
2023/07/20 08:39:14;;;;;;;4.20;1.10;;;18.80;99.90;;;;;;4980328;28;20465;-85
2023/07/20 08:41:42;;;;;;;5.22;1.25;;;18.80;99.90;;;;;;4980151;28;20045;-86
2023/07/20 08:44:08;;;;;;;5.28;1.20;;;18.90;99.90;;;;;;4995544;28;20042;-86
2023/07/20 08:46:37;;;;;;;5.88;1.10;;;18.90;99.90;;;;;;4995897;28;20033;-86
2023/07/20 08:49:03;;;;;;;8.70;1.30;;;19.00;99.90;;;;;;4980234;28;20049;-86
2023/07/20 08:51:30;;;;;;;4.55;1.33;;;19.10;99.90;;;;;;4996440;28;20037;-86
2023/07/20 08:53:56;;;;;;;2.65;0.88;;;19.20;99.90;;;;;;4997540;28;20049;-85
2023/07/20 08:56:24;;;;;;;3.47;1.05;;;19.30;99.90;;;;;;4996173;28;20042;-85
2023/07/20 08:58:50;;;;;;;4.63;1.20;;;19.40;99.90;;;;;;4980371;28;20052;-85
2023/07/20 09:01:18;;;;;;;5.75;1.30;;;19.60;99.90;;;;;;4980354;28;20042;-85
2023/07/20 09:03:46;;;;;;;5.55;1.58;;;19.70;99.90;;;;;;4980052;28;20117;-85
2023/07/20 09:06:12;;;;;;;7.00;2.17;;;19.70;99.90;;;;;;4979136;28;20667;-85
2023/07/20 09:08:41;;;;;;;4.20;1.30;;;19.80;99.90;;;;;;4995944;28;20455;-86
2023/07/20 09:11:08;;;;;;;3.88;1.30;;;19.80;99.90;;;;;;4979794;28;20473;-86
2023/07/20 09:13:34;;;;;;;5.65;1.30;;;19.80;99.90;;;;;;4995612;28;20042;-85
2023/07/20 09:15:59;;;;;;;4.25;1.10;;;19.80;99.90;;;;;;5012795;28;20060;-85
2023/07/20 09:18:31;;;;;;;5.57;1.30;;;19.80;99.90;;;;;;4979519;28;20045;-86
2023/07/20 09:21:04;;;;;;;4.40;1.10;;;19.80;99.80;;;;;;4995762;28;20124;-86
2023/07/20 09:23:34;;;;;;;3.60;1.00;;;19.80;96.10;;;;;;4975878;28;20057;-85
2023/07/20 09:26:00;;;;;;;4.68;1.20;;;19.80;98.30;;;;;;4959181;28;20130;-86
2023/07/20 09:28:26;;;;;;;3.72;1.05;;;20.00;99.80;;;;;;4959626;28;20495;-86
2023/07/20 09:30:55;;;;;;;3.58;1.10;;;20.10;99.20;;;;;;4976131;28;20081;-86
2023/07/20 09:33:24;;;;;;;5.28;1.40;;;20.20;99.90;;;;;;4976109;28;20030;-86
2023/07/20 09:35:50;;;;;;;6.63;2.22;;;20.30;99.90;;;;;;4975452;28;20138;-86
2023/07/20 09:38:16;;;;;;;6.50;1.83;;;20.30;99.90;;;;;;4975793;28;20130;-86
2023/07/20 09:40:42;;;;;;;4.80;1.60;;;20.20;99.90;;;;;;4975551;28;20304;-85
2023/07/20 09:43:09;;;;;;;6.05;1.20;;;20.20;99.30;;;;;;4959187;28;20067;-86
2023/07/20 09:45:44;;;;;;;6.35;1.42;;;20.20;98.70;;;;;;4958988;28;20511;-86
2023/07/20 09:48:11;;;;;;;2.47;0.90;;;20.20;97.40;;;;;;4968024;28;20077;-87
2023/07/20 09:50:44;;;;;;;5.63;1.40;;;20.00;96.70;;;;;;4984065;28;20088;-87
2023/07/20 09:53:17;;;;;;;4.53;1.17;;;19.90;95.20;;;;;;5000553;28;20030;-86
2023/07/20 09:55:47;;;;;;;3.60;1.10;;;19.90;95.50;;;;;;4958334;28;20384;-87
2023/07/20 09:58:14;;;;;;;4.90;1.20;;;19.90;94.50;;;;;;4975755;28;20125;-86
2023/07/20 10:00:50;;;;;;;4.80;1.20;;;19.90;94.60;;;;;;4969601;28;20569;-87
2023/07/20 10:03:20;;;;;;;4.78;1.13;;;20.10;93.20;;;;;;4978343;28;20049;-86
2023/07/20 10:06:00;;;;;;;4.20;0.90;;;20.10;92.60;;;;;;4977774;28;20049;-87
2023/07/20 10:08:28;;;;;;;2.60;1.05;;;20.30;91.70;;;;;;4994575;28;20048;-87
2023/07/20 10:10:53;;;;;;;4.00;1.00;;;20.40;91.60;;;;;;4978716;28;20096;-87
2023/07/20 10:13:27;;;;;;;5.13;1.25;;;20.50;87.80;;;;;;4994797;28;20034;-87
2023/07/20 10:16:05;;;;;;;4.40;1.08;;;20.40;87.50;;;;;;4987999;28;20042;-86
2023/07/20 10:18:45;;;;;;;3.22;1.00;;;20.30;89.40;;;;;;4983819;28;20092;-86
2023/07/20 10:21:12;;;;;;;5.00;1.23;;;20.20;86.70;;;;;;5001653;28;20038;-87
2023/07/20 10:23:39;;;;;;;3.20;1.10;;;20.10;89.70;;;;;;4983383;28;20042;-87
2023/07/20 10:26:05;;;;;;;3.38;1.10;;;20.00;90.60;;;;;;4966395;28;20167;-86
2023/07/20 10:28:31;;;;;;;3.05;1.00;;;19.90;91.20;;;;;;4984698;28;20039;-86
2023/07/20 10:30:56;;;;;;;5.72;1.40;;;19.80;91.30;;;;;;4974376;28;20042;-86
2023/07/20 10:33:23;;;;;;;3.75;1.20;;;19.80;91.90;;;;;;4975558;28;20035;-86
2023/07/20 10:36:03;;;;;;;4.20;1.38;;;19.70;91.70;;;;;;4959625;28;20404;-86
2023/07/20 10:38:57;;;;;;;6.38;2.28;;;19.50;95.20;;;;;;4959834;28;20038;-86
2023/07/20 10:41:39;;;;;;;4.43;1.50;;;19.20;99.90;;;;;;4961519;28;20041;-86
2023/07/20 10:44:07;;;;;;;5.05;1.77;;;19.00;99.90;;;;;;4966441;28;20128;-86
2023/07/20 10:46:39;;;;;;;5.18;1.42;;;18.80;99.90;;;;;;4981998;28;20510;-86
2023/07/20 10:49:06;;;;;;;2.83;1.20;;;18.70;99.90;;;;;;4983588;28;20069;-86
2023/07/20 10:51:43;;;;;;;7.50;1.85;;;18.60;99.90;;;;;;4967264;28;20038;-86
2023/07/20 10:54:15;;;;;;;4.68;1.52;;;18.50;99.90;;;;;;4984237;28;20516;-86
2023/07/20 10:56:41;;;;;;;5.00;1.50;;;18.50;99.90;;;;;;5014115;28;20042;-86
2023/07/20 10:59:19;;;;;;;5.15;2.00;;;18.40;99.90;;;;;;4983384;28;20041;-86
2023/07/20 11:01:47;;;;;;;5.15;1.80;;;18.40;99.90;;;;;;4991563;28;20064;-86
2023/07/20 11:04:12;;;;;;;5.07;1.80;;;18.40;99.90;;;;;;4990187;28;20049;-86
2023/07/20 11:06:43;;;;;;;4.30;1.50;;;18.40;99.90;;;;;;4985016;28;20115;-87
2023/07/20 11:09:16;;;;;;;5.63;1.73;;;18.40;99.90;;;;;;4981438;28;20038;-86
2023/07/20 11:11:47;;;;;;;5.00;1.35;;;18.40;99.90;;;;;;4969991;28;20030;-86
2023/07/20 11:14:24;;;;;;;3.13;1.17;;;18.40;99.90;;;;;;4986440;28;20042;-86
2023/07/20 11:16:51;;;;;;;3.80;1.20;;;18.30;99.90;;;;;;4979039;28;20045;-86
2023/07/20 11:19:17;;;;;;;2.83;1.20;;;18.30;99.90;;;;;;4987214;28;20034;-85
2023/07/20 11:21:50;;;;;;;3.55;1.00;;;18.30;99.90;;;;;;4986937;28;20046;-85
2023/07/20 11:24:16;;;;;;;2.97;1.30;;;18.30;99.90;;;;;;4986513;28;20060;-85
2023/07/20 11:26:45;;;;;;;4.90;1.20;;;18.40;99.90;;;;;;4971546;28;20498;-85
2023/07/20 11:29:11;;;;;;;4.20;1.25;;;18.40;99.90;;;;;;4971811;28;20133;-86
2023/07/20 11:31:42;;;;;;;3.00;0.95;;;18.50;99.90;;;;;;4986323;28;20114;-86
2023/07/20 11:34:13;;;;;;;3.78;1.00;;;18.50;99.90;;;;;;4986365;28;20035;-85
2023/07/20 11:36:45;;;;;;;5.10;1.15;;;18.60;99.90;;;;;;4977374;28;20513;-85
2023/07/20 11:39:12;;;;;;;4.18;1.20;;;18.70;99.90;;;;;;5004656;28;20121;-86
2023/07/20 11:41:39;;;;;;;5.45;1.30;;;18.70;99.90;;;;;;4986084;28;20117;-85
2023/07/20 11:44:07;;;;;;;4.55;1.15;;;18.80;99.90;;;;;;4978550;28;20038;-85
2023/07/20 11:46:33;;;;;;;3.17;1.20;;;18.90;99.90;;;;;;4986802;28;20042;-85
2023/07/20 11:48:59;;;;;;;5.38;1.42;;;19.00;99.90;;;;;;4985530;28;20042;-85
2023/07/20 11:51:27;;;;;;;3.78;1.20;;;19.00;99.90;;;;;;4987034;28;20034;-85
2023/07/20 11:53:53;;;;;;;3.55;1.60;;;19.10;99.90;;;;;;4987894;28;20096;-85
2023/07/20 11:56:18;;;;;;;4.07;1.75;;;19.20;99.90;;;;;;4971461;28;20454;-85
2023/07/20 11:58:45;;;;;;;5.55;2.28;;;19.20;99.90;;;;;;4986567;28;20564;-85
2023/07/20 12:01:15;;;;;;;5.30;2.20;;;19.30;99.90;;;;;;4970342;28;20045;-85
2023/07/20 12:03:43;;;;;;;5.55;2.05;;;19.40;99.90;;;;;;4970978;28;20045;-85
2023/07/20 12:06:09;;;;;;;5.22;2.10;;;19.40;99.90;;;;;;4986346;28;20449;-85
2023/07/20 12:08:38;;;;;;;5.20;1.95;;;19.50;99.90;;;;;;4987162;28;20074;-85
2023/07/20 12:11:04;;;;;;;5.90;1.70;;;19.60;99.90;;;;;;4985721;28;20121;-86
2023/07/20 12:13:43;;;;;;;6.07;1.42;;;19.70;99.90;;;;;;4979311;28;20077;-86
2023/07/20 12:16:16;;;;;;;4.97;1.63;;;19.80;99.90;;;;;;4976999;28;20129;-86
2023/07/20 12:18:45;;;;;;;5.55;1.25;;;20.00;99.90;;;;;;4976435;28;20173;-86
2023/07/20 12:21:11;;;;;;;5.00;1.33;;;20.10;99.00;;;;;;4977385;28;20050;-85
2023/07/20 12:23:41;;;;;;;3.47;1.33;;;20.20;97.30;;;;;;4976930;28;20049;-85
2023/07/20 12:26:10;;;;;;;4.20;1.20;;;20.30;94.60;;;;;;4976198;28;20057;-86
2023/07/20 12:28:42;;;;;;;6.03;1.30;;;20.40;94.20;;;;;;4977047;28;20092;-86
2023/07/20 12:31:10;;;;;;;3.25;1.20;;;20.50;94.70;;;;;;4976152;28;20121;-86
2023/07/20 12:33:37;;;;;;;4.35;1.30;;;20.60;94.90;;;;;;4977016;28;20511;-86
2023/07/20 12:36:06;;;;;;;5.57;1.50;;;20.80;93.90;;;;;;4961518;28;20128;-86
2023/07/20 12:38:32;;;;;;;4.13;1.10;;;21.00;95.50;;;;;;4963578;28;20093;-86
2023/07/20 12:40:58;;;;;;;4.68;1.20;;;21.10;91.20;;;;;;4960848;28;20042;-86
2023/07/20 12:43:24;;;;;;;5.05;1.30;;;21.10;86.00;;;;;;4961007;28;20442;-86
2023/07/20 12:45:50;;;;;;;4.25;1.23;;;21.20;86.80;;;;;;4976169;28;20050;-86
2023/07/20 12:48:15;;;;;;;3.90;1.25;;;21.40;86.00;;;;;;4960727;28;20050;-86